Sand Heads, British Columbia

5:25 PM PDT on August 29, 2015 (GMT -0700)
Vancouver International | | Change Station
CLOSE
Current Station
Airport
Location: Vancouver,
Elevation: 13 ft
Nearby Weather Stations

Elev 13 ft 49.18 °N, 123.17 °W | Updated 25 minutes ago

Light Rain
Light Rain Mist
64 °F
Feels Like 64 °F
N
7
Wind Variable Wind from ESE

Today
High -- | Low -- °F
--% Chance of Precip.
Yesterday
High -- | Low -- °F
Precip. -- in
6:25 AM 8:02 PM
Full, 100% visible
Pressure 29.67 in
Visibility 4.0 miles
Clouds Few 3000 ft
Mostly Cloudy 3700 ft
Overcast 6200 ft
Dew Point 57 °F
Humidity 77%
Rainfall 0.00 in
Snow Depth Not available.
UV 0 out of 12
Pollen Not available.
Air Quality Not available.
Flu Activity Not available.
METAR CYVR 300000Z 12006KT 4SM -RA BR FEW030 BKN037 OVC062 18/14 A2966 RMK CF1SC5SC2 VIS LWR N -RA INTMT PRESRR SLP045 DENSITY ALT 600FT
Pressure 29.67 in
Visibility 4.0 miles
Clouds Few 3000 ft
Mostly Cloudy 3700 ft
Overcast 6200 ft
Dew Point 57 °F
Humidity 77%
Rainfall 0.00 in
Snow Depth Not available.
UV 0 out of 12
Pollen Not available.
Air Quality Not available.
Flu Activity Not available.
METAR CYVR 300000Z 12006KT 4SM -RA BR FEW030 BKN037 OVC062 18/14 A2966 RMK CF1SC5SC2 VIS LWR N -RA INTMT PRESRR SLP045 DENSITY ALT 600FT

10-Day Weather Forecast

×

Almanac

Astronomy

Aug. 29, 2015 Rise Set
Actual Time
Civil Twilight
Nautical Twilight
Astronomical Twilight
Moon
Length of Visible Light
Length of Day
Tomorrow will be .
, % of the Moon is Illuminated

Today's Extremes

Country Highs Country Lows

Community

WunderPhotos

Upload Photos

1,850,794 photos uploaded!

WunderBlogs® & News

Nearby

Air Quality

  Air Quality AQ Index Pollutant
Not available.

Snow Depth

Station Depth Elevation

Earthquake Activity

City Distance Mag. Time & Date
Minimum magnitude displayed is 2.5.

Coastal Water Temperatures

Place Temperature

Stations

Nearby Weather Stations

Station Location Temp. Windchill Dew Point Humidity Wind Precip. Elev Updated Type